createdAt,value
2019-04-23T00:02:29.814Z,8.97
2019-04-23T00:04:55.552Z,9.60
2019-04-23T00:10:03.517Z,8.73
2019-04-23T00:12:38.489Z,9.37
2019-04-23T00:15:07.422Z,9.27
2019-04-23T00:17:40.318Z,8.73
2019-04-23T00:20:04.219Z,8.60
2019-04-23T00:22:36.614Z,7.70
2019-04-23T00:25:30.328Z,8.80
2019-04-23T00:30:16.932Z,8.30
2019-04-23T00:32:36.302Z,9.03
2019-04-23T00:35:00.670Z,8.07
2019-04-23T00:37:32.709Z,8.67
2019-04-23T00:39:59.180Z,8.07
2019-04-23T00:42:38.415Z,8.73
2019-04-23T00:44:57.256Z,7.50
2019-04-23T00:50:17.187Z,8.20
2019-04-23T00:52:45.718Z,8.03
2019-04-23T00:55:04.410Z,8.00
2019-04-23T00:57:40.569Z,8.80
2019-04-23T01:00:03.804Z,8.47
2019-04-23T01:02:33.487Z,8.33
2019-04-23T01:05:03.630Z,8.17
2019-04-23T01:07:24.275Z,8.10
2019-04-23T01:10:08.321Z,8.17
2019-04-23T01:12:38.397Z,8.20
2019-04-23T01:15:07.557Z,8.17
2019-04-23T01:17:39.812Z,7.83
2019-04-23T01:20:14.809Z,7.93
2019-04-23T01:22:27.593Z,8.20
2019-04-23T01:25:10.341Z,7.97
2019-04-23T01:30:28.141Z,9.30
2019-04-23T01:32:58.905Z,9.63
2019-04-23T01:35:25.326Z,9.83
2019-04-23T01:37:57.990Z,9.00
2019-04-23T01:40:36.539Z,8.40
2019-04-23T01:42:58.557Z,8.77
2019-04-23T01:45:35.759Z,8.93
2019-04-23T01:47:59.713Z,8.73
2019-04-23T01:50:37.618Z,8.23
2019-04-23T01:53:08.666Z,8.40
2019-04-23T01:55:36.268Z,9.13
2019-04-23T01:58:23.855Z,8.47
2019-04-23T02:00:36.920Z,8.27
2019-04-23T02:03:01.071Z,8.40
2019-04-23T02:05:35.028Z,9.00
2019-04-23T02:08:03.573Z,7.97
2019-04-23T02:13:10.910Z,7.53
2019-04-23T02:15:36.290Z,8.00
2019-04-23T02:18:08.076Z,8.10
2019-04-23T02:20:39.361Z,8.20
2019-04-23T02:25:52.179Z,7.70
2019-04-23T02:28:19.939Z,7.17
2019-04-23T02:31:12.092Z,8.10
2019-04-23T02:38:31.217Z,7.77
2019-04-23T02:43:26.079Z,7.73
2019-04-23T02:48:24.781Z,7.10
2019-04-23T03:01:20.678Z,7.67
2019-04-23T03:05:59.225Z,7.83
2019-04-23T03:08:31.020Z,8.00
2019-04-23T03:11:04.797Z,7.00
2019-04-23T03:13:44.110Z,8.00
2019-04-23T03:16:31.699Z,7.70
2019-04-23T03:19:29.656Z,7.73
2019-04-23T03:21:59.784Z,8.00
2019-04-23T03:25:10.243Z,7.27
2019-04-23T03:27:34.892Z,7.90
2019-04-23T03:37:34.052Z,7.40
2019-04-23T03:42:22.293Z,7.87
2019-04-23T03:44:59.867Z,7.40
2019-04-23T03:47:24.766Z,7.53
2019-04-23T03:49:55.991Z,7.93
2019-04-23T03:52:27.937Z,8.10
2019-04-23T03:54:49.037Z,8.40
2019-04-23T03:59:58.908Z,8.43
2019-04-23T04:04:45.200Z,8.33
2019-04-23T04:07:32.769Z,8.63
2019-04-23T04:09:49.648Z,8.27
2019-04-23T04:12:32.839Z,7.53
2019-04-23T04:17:22.077Z,8.50
2019-04-23T04:19:56.281Z,8.10
2019-04-23T04:22:29.342Z,8.10
2019-04-23T04:24:48.952Z,8.10
2019-04-23T04:27:29.114Z,8.83
2019-04-23T04:29:52.301Z,8.17
2019-04-23T04:32:17.478Z,8.43
2019-04-23T04:35:12.853Z,8.40
2019-04-23T04:40:07.852Z,8.20
2019-04-23T04:45:14.388Z,8.73
2019-04-23T04:47:35.505Z,8.20
2019-04-23T04:49:56.215Z,8.23
2019-04-23T04:54:50.367Z,8.43
2019-04-23T04:57:30.231Z,8.03
2019-04-23T05:00:01.791Z,8.33
2019-04-23T05:04:55.982Z,7.63
2019-04-23T05:07:27.660Z,9.07
2019-04-23T05:10:05.880Z,8.10
2019-04-23T05:12:23.657Z,8.60
2019-04-23T05:15:04.843Z,7.90
2019-04-23T05:17:32.563Z,8.10
2019-04-23T05:19:56.797Z,8.37
2019-04-23T05:22:44.927Z,7.93
2019-04-23T05:24:57.196Z,8.20
2019-04-23T05:27:36.848Z,8.03
2019-04-23T05:30:00.900Z,7.77
2019-04-23T05:32:28.794Z,7.33
2019-04-23T05:34:57.656Z,7.53
2019-04-23T05:37:35.690Z,7.87
2019-04-23T05:39:56.672Z,7.57
2019-04-23T05:42:26.545Z,7.30
2019-04-23T05:44:57.292Z,8.20
2019-04-23T05:47:29.303Z,7.73
2019-04-23T05:50:02.084Z,8.10
2019-04-23T05:52:31.281Z,7.33
2019-04-23T05:54:56.247Z,7.63
2019-04-23T05:57:20.606Z,7.87
2019-04-23T05:59:59.054Z,7.90
2019-04-23T06:02:26.722Z,7.77
2019-04-23T06:04:57.329Z,7.50
2019-04-23T06:09:59.293Z,7.67
2019-04-23T06:12:30.420Z,7.83
2019-04-23T06:17:39.252Z,7.10
2019-04-23T06:20:02.905Z,6.83
2019-04-23T06:22:35.243Z,7.27
2019-04-23T06:25:01.279Z,6.90
2019-04-23T06:27:32.305Z,7.20
2019-04-23T06:30:01.014Z,6.73
2019-04-23T06:32:34.229Z,6.80
2019-04-23T06:35:06.333Z,6.80
2019-04-23T06:37:47.681Z,6.80
2019-04-23T06:40:08.444Z,6.20
2019-04-23T06:42:55.689Z,6.60
2019-04-23T06:45:26.064Z,6.20
2019-04-23T06:48:01.666Z,6.40
2019-04-23T06:50:43.353Z,6.17
2019-04-23T06:53:04.561Z,6.50
2019-04-23T06:55:44.575Z,6.40
2019-04-23T06:58:13.616Z,6.07
2019-04-23T07:00:41.204Z,6.80
2019-04-23T07:03:16.164Z,6.47
2019-04-23T07:06:13.860Z,6.37
2019-04-23T07:09:04.412Z,6.53
2019-04-23T07:11:18.901Z,6.17
2019-04-23T07:13:47.185Z,6.40
2019-04-23T07:16:09.887Z,6.63
2019-04-23T07:18:41.534Z,5.80
2019-04-23T07:21:17.903Z,6.00
2019-04-23T07:23:54.668Z,6.00
2019-04-23T07:26:27.386Z,6.20
2019-04-23T07:28:49.958Z,6.00
2019-04-23T07:33:50.705Z,6.50
2019-04-23T07:36:17.884Z,6.33
2019-04-23T07:39:01.211Z,6.27
2019-04-23T07:41:54.805Z,6.50
2019-04-23T07:44:42.534Z,6.30
2019-04-23T07:50:00.989Z,6.23
2019-04-23T07:52:27.566Z,6.50
2019-04-23T07:54:53.693Z,6.80
2019-04-23T07:57:35.061Z,6.90
2019-04-23T07:59:59.206Z,6.50
2019-04-23T08:07:19.946Z,6.70
2019-04-23T08:09:53.200Z,7.00
2019-04-23T08:14:53.217Z,6.20
2019-04-23T08:17:16.152Z,7.00
2019-04-23T08:19:56.041Z,6.30
2019-04-23T08:22:30.312Z,6.83
2019-04-23T08:25:26.453Z,5.90
2019-04-23T08:27:42.152Z,6.80
2019-04-23T08:30:13.315Z,6.00
2019-04-23T08:32:47.231Z,6.50
2019-04-23T08:35:16.381Z,6.53
2019-04-23T08:38:02.635Z,6.70
2019-04-23T08:43:12.900Z,6.57
2019-04-23T08:45:18.638Z,6.90
2019-04-23T08:50:44.147Z,6.43
2019-04-23T08:53:23.320Z,6.83
2019-04-23T08:55:46.324Z,7.17
2019-04-23T08:58:14.158Z,6.60
2019-04-23T09:00:55.344Z,6.60
2019-04-23T09:05:53.101Z,7.30
2019-04-23T09:08:27.849Z,6.77
2019-04-23T09:18:20.961Z,6.30
2019-04-23T09:20:51.231Z,7.40
2019-04-23T09:23:28.375Z,6.70
2019-04-23T09:25:53.529Z,6.73
2019-04-23T09:30:57.804Z,7.00
2019-04-23T09:36:26.256Z,6.63
2019-04-23T09:42:01.088Z,7.33
2019-04-23T09:47:43.779Z,6.90
2019-04-23T09:50:11.058Z,6.57
2019-04-23T09:52:39.260Z,5.80
2019-04-23T09:55:15.990Z,6.37
2019-04-23T09:57:41.560Z,6.30
2019-04-23T10:00:10.262Z,6.93
2019-04-23T10:02:28.243Z,6.63
2019-04-23T10:04:51.843Z,6.13
2019-04-23T10:07:21.214Z,6.37
2019-04-23T10:09:38.311Z,6.47
2019-04-23T10:12:07.319Z,5.90
2019-04-23T10:14:36.607Z,5.87
2019-04-23T10:17:06.284Z,6.23
2019-04-23T10:19:35.033Z,6.77
2019-04-23T10:22:02.964Z,7.00
2019-04-23T10:24:30.939Z,7.17
2019-04-23T10:27:00.069Z,6.60
2019-04-23T10:29:34.229Z,6.83
2019-04-23T10:32:02.129Z,6.80
2019-04-23T10:34:42.267Z,6.93
2019-04-23T10:36:59.862Z,6.90
2019-04-23T10:39:32.382Z,7.00
2019-04-23T10:41:58.979Z,6.93
2019-04-23T10:44:32.967Z,7.60
2019-04-23T10:47:45.208Z,7.10
2019-04-23T10:51:00.259Z,7.00
2019-04-23T10:53:26.619Z,7.20
2019-04-23T10:55:54.500Z,6.97
2019-04-23T11:00:55.750Z,6.97
2019-04-23T11:08:17.410Z,7.43
2019-04-23T11:10:50.690Z,7.43
2019-04-23T11:13:31.402Z,7.20
2019-04-23T11:16:24.792Z,6.17
2019-04-23T11:18:38.316Z,7.17
2019-04-23T11:20:59.001Z,7.17
2019-04-23T11:23:32.631Z,7.13
2019-04-23T11:25:55.859Z,7.67
2019-04-23T11:28:32.990Z,7.00
2019-04-23T11:31:04.403Z,6.90
2019-04-23T11:33:40.142Z,6.87
2019-04-23T11:36:37.971Z,7.00
2019-04-23T11:38:48.744Z,7.30
2019-04-23T11:41:17.265Z,7.70
2019-04-23T11:43:34.343Z,8.17
2019-04-23T11:48:46.409Z,7.53
2019-04-23T11:53:47.737Z,7.73
2019-04-23T11:58:39.251Z,10.90
2019-04-23T12:06:59.714Z,7.27
2019-04-23T12:09:46.522Z,7.13
2019-04-23T12:12:17.183Z,7.67
2019-04-23T12:15:03.554Z,7.70
2019-04-23T12:27:31.198Z,7.83
2019-04-23T12:30:01.601Z,7.23
2019-04-23T12:35:04.307Z,6.93
2019-04-23T12:37:41.298Z,8.10
2019-04-23T12:40:17.577Z,8.10
2019-04-23T12:47:58.430Z,7.80
2019-04-23T12:50:38.082Z,7.70
2019-04-23T12:52:41.368Z,8.10
2019-04-23T12:55:19.692Z,7.83
2019-04-23T12:57:42.324Z,8.40
2019-04-23T13:00:22.916Z,7.43
2019-04-23T13:05:28.403Z,8.10
2019-04-23T13:08:02.076Z,8.57
2019-04-23T13:10:28.374Z,7.93
2019-04-23T13:13:17.050Z,8.10
2019-04-23T13:15:29.420Z,7.80
2019-04-23T13:23:14.146Z,8.00
2019-04-23T13:28:27.700Z,8.33
2019-04-23T13:30:59.361Z,8.67
2019-04-23T13:33:35.160Z,8.00
2019-04-23T13:36:08.658Z,8.30
2019-04-23T13:43:40.508Z,8.67
2019-04-23T13:48:36.675Z,8.73
2019-04-23T13:51:16.217Z,8.83
2019-04-23T13:56:15.387Z,9.13
2019-04-23T13:58:50.408Z,8.80
2019-04-23T14:01:21.935Z,8.60
2019-04-23T14:08:55.288Z,8.90
2019-04-23T14:13:55.056Z,8.97
2019-04-23T14:18:56.027Z,9.03
2019-04-23T14:24:03.309Z,8.80
2019-04-23T14:28:44.653Z,8.43
2019-04-23T14:36:39.277Z,9.80
2019-04-23T14:39:14.116Z,9.27
2019-04-23T14:41:36.276Z,9.47
2019-04-23T14:44:03.648Z,8.90
2019-04-23T14:53:48.349Z,8.70
2019-04-23T14:56:29.925Z,9.00
2019-04-23T15:01:27.425Z,8.77
2019-04-23T15:09:00.649Z,8.37
2019-04-23T15:11:27.506Z,8.63
2019-04-23T15:13:51.922Z,9.30
2019-04-23T15:16:26.280Z,8.63
2019-04-23T15:19:11.255Z,8.80
2019-04-23T15:21:46.747Z,8.50
2019-04-23T15:24:23.306Z,8.70
2019-04-23T15:28:43.113Z,9.13
2019-04-23T15:31:58.869Z,9.23
2019-04-23T15:34:11.117Z,9.37
2019-04-23T15:39:11.817Z,8.70
2019-04-23T15:44:12.297Z,9.00
2019-04-23T15:46:32.539Z,8.87
2019-04-23T15:51:48.814Z,9.30
2019-04-23T15:54:14.130Z,9.47
2019-04-23T15:56:44.606Z,8.80
2019-04-23T16:01:34.485Z,9.43
2019-04-23T16:03:38.270Z,8.53
2019-04-23T16:06:07.869Z,8.73
2019-04-23T16:14:17.372Z,9.27
2019-04-23T16:16:43.083Z,9.30
2019-04-23T16:26:55.977Z,9.30
2019-04-23T16:31:47.799Z,9.30
2019-04-23T16:37:03.795Z,9.40
2019-04-23T16:39:48.753Z,8.73
2019-04-23T16:42:01.827Z,9.30
2019-04-23T16:44:38.449Z,9.13
2019-04-23T16:47:03.679Z,9.23
2019-04-23T16:49:51.792Z,9.87
2019-04-23T16:52:01.451Z,9.60
2019-04-23T16:54:40.798Z,10.00
2019-04-23T17:00:02.600Z,9.73
2019-04-23T17:02:07.820Z,10.03
2019-04-23T17:04:31.163Z,9.63
2019-04-23T17:07:05.384Z,10.73
2019-04-23T17:09:42.852Z,10.83
2019-04-23T17:14:30.669Z,10.60
2019-04-23T17:16:56.743Z,10.20
2019-04-23T17:22:06.305Z,10.67
2019-04-23T17:24:30.535Z,10.17
2019-04-23T17:27:08.612Z,9.90
2019-04-23T17:29:35.210Z,10.00
2019-04-23T17:32:09.777Z,10.33
2019-04-23T17:34:54.652Z,9.87
2019-04-23T17:37:29.925Z,10.37
2019-04-23T17:40:06.951Z,10.10
2019-04-23T17:42:49.564Z,10.20
2019-04-23T17:48:13.496Z,9.97
2019-04-23T17:50:53.177Z,9.87
2019-04-23T17:53:19.422Z,10.33
2019-04-23T17:58:23.385Z,10.00
2019-04-23T18:01:04.076Z,10.53
2019-04-23T18:03:28.307Z,10.10
2019-04-23T18:06:03.685Z,10.47
2019-04-23T18:11:05.998Z,11.00
2019-04-23T18:13:27.680Z,10.97
2019-04-23T18:16:02.190Z,10.77
2019-04-23T18:18:31.076Z,10.20
2019-04-23T18:21:29.458Z,10.87
2019-04-23T18:24:17.952Z,10.43
2019-04-23T18:26:51.598Z,10.63
2019-04-23T18:29:36.135Z,11.60
2019-04-23T18:32:05.830Z,10.80
2019-04-23T18:34:36.717Z,11.07
2019-04-23T18:37:01.565Z,11.17
2019-04-23T18:39:29.943Z,11.63
2019-04-23T18:42:09.514Z,10.93
2019-04-23T18:44:38.340Z,11.50
2019-04-23T18:47:04.306Z,10.93
2019-04-23T18:49:35.455Z,10.57
2019-04-23T18:51:59.847Z,10.80
2019-04-23T18:54:28.573Z,10.73
2019-04-23T18:59:41.102Z,10.07
2019-04-23T19:02:09.178Z,11.00
2019-04-23T19:04:54.641Z,10.13
2019-04-23T19:07:36.032Z,10.17
2019-04-23T19:10:33.715Z,10.40
2019-04-23T19:15:38.069Z,11.20
2019-04-23T19:18:06.215Z,10.53
2019-04-23T19:20:58.661Z,10.47
2019-04-23T19:25:38.900Z,10.90
2019-04-23T19:28:23.647Z,10.17
2019-04-23T19:30:53.580Z,11.23
2019-04-23T19:33:29.125Z,10.40
2019-04-23T19:36:04.493Z,11.30
2019-04-23T19:40:56.744Z,10.80
2019-04-23T19:43:26.481Z,11.27
2019-04-23T19:45:55.680Z,10.70
2019-04-23T19:56:04.389Z,11.17
2019-04-23T19:58:34.573Z,10.93
2019-04-23T20:01:10.518Z,10.90
2019-04-23T20:05:57.327Z,10.43
2019-04-23T20:10:47.786Z,11.20
2019-04-23T20:13:21.851Z,11.47
2019-04-23T20:16:07.098Z,11.40
2019-04-23T20:18:25.226Z,11.03
2019-04-23T20:20:49.683Z,11.97
2019-04-23T20:23:25.669Z,11.07
2019-04-23T20:28:58.615Z,11.97
2019-04-23T20:31:58.247Z,11.53
2019-04-23T20:34:01.300Z,11.83
2019-04-23T20:36:32.584Z,10.90
2019-04-23T20:41:39.846Z,11.50
2019-04-23T20:43:55.592Z,10.37
2019-04-23T20:46:27.463Z,10.90
2019-04-23T20:51:25.884Z,12.13
2019-04-23T20:53:52.902Z,11.47
2019-04-23T20:56:30.008Z,11.50
2019-04-23T20:59:03.485Z,11.33
2019-04-23T21:02:02.547Z,11.17
2019-04-23T21:04:09.239Z,11.30
2019-04-23T21:09:39.347Z,11.20
2019-04-23T21:11:55.798Z,11.23
2019-04-23T21:14:31.316Z,11.07
2019-04-23T21:16:58.364Z,11.20
2019-04-23T21:19:25.846Z,11.27
2019-04-23T21:22:13.265Z,11.40
2019-04-23T21:24:46.349Z,11.17
2019-04-23T21:27:35.847Z,11.17
2019-04-23T21:32:26.540Z,10.83
2019-04-23T21:34:56.424Z,10.97
2019-04-23T21:37:39.318Z,10.10
2019-04-23T21:40:57.517Z,10.40
2019-04-23T21:45:42.096Z,10.43
2019-04-23T21:48:13.296Z,10.73
2019-04-23T21:50:46.787Z,10.17
2019-04-23T21:53:00.190Z,11.00
2019-04-23T21:55:39.067Z,10.40
2019-04-23T21:58:07.166Z,9.83
2019-04-23T22:00:46.048Z,9.67
2019-04-23T22:03:11.929Z,9.73
2019-04-23T22:05:45.931Z,9.43
2019-04-23T22:08:02.500Z,9.20
2019-04-23T22:10:32.036Z,8.90
2019-04-23T22:15:49.256Z,9.70
2019-04-23T22:18:09.526Z,9.00
2019-04-23T22:20:43.571Z,9.23
2019-04-23T22:25:50.611Z,9.70
2019-04-23T22:28:11.460Z,9.97
2019-04-23T22:30:52.252Z,8.90
2019-04-23T22:33:09.525Z,9.10
2019-04-23T22:35:49.732Z,9.37
2019-04-23T22:38:13.045Z,8.93
2019-04-23T22:40:41.559Z,8.90
2019-04-23T22:45:53.216Z,9.17
2019-04-23T22:48:17.847Z,9.30
2019-04-23T22:50:47.397Z,9.60
2019-04-23T22:55:49.708Z,8.97
2019-04-23T22:58:11.010Z,8.90
2019-04-23T23:01:00.261Z,9.20
2019-04-23T23:03:22.812Z,9.13
2019-04-23T23:13:37.606Z,8.27
2019-04-23T23:23:21.524Z,9.37
2019-04-23T23:25:59.174Z,8.77
2019-04-23T23:31:06.916Z,9.10
2019-04-23T23:33:27.232Z,9.13
2019-04-23T23:35:57.349Z,8.70
2019-04-23T23:38:28.919Z,8.50
2019-04-23T23:41:02.039Z,8.57
2019-04-23T23:46:06.955Z,8.40
2019-04-23T23:48:32.164Z,8.63
2019-04-23T23:50:57.193Z,8.97
2019-04-23T23:53:24.951Z,9.30
2019-04-23T23:55:58.566Z,8.87
2019-04-23T23:58:23.147Z,9.30
